createdAt,value
2023-03-25T00:01:09.071Z,99.90
2023-03-25T00:03:41.987Z,99.90
2023-03-25T00:06:10.844Z,99.90
2023-03-25T00:08:38.202Z,99.90
2023-03-25T00:11:06.838Z,99.90
2023-03-25T00:13:34.179Z,99.90
2023-03-25T00:16:01.871Z,99.90
2023-03-25T00:18:33.708Z,99.90
2023-03-25T00:21:02.578Z,99.90
2023-03-25T00:23:31.722Z,99.90
2023-03-25T00:26:01.925Z,99.90
2023-03-25T00:28:31.292Z,99.90
2023-03-25T00:31:09.405Z,99.90
2023-03-25T00:33:36.149Z,99.90
2023-03-25T00:36:04.595Z,99.90
2023-03-25T00:38:35.084Z,99.90
2023-03-25T00:41:13.481Z,99.90
2023-03-25T00:43:40.973Z,99.90
2023-03-25T00:46:08.027Z,99.90
2023-03-25T00:48:34.897Z,99.90
2023-03-25T00:51:07.305Z,99.90
2023-03-25T00:53:35.082Z,99.90
2023-03-25T00:56:02.588Z,99.90
2023-03-25T00:58:29.596Z,99.90
2023-03-25T01:00:57.702Z,99.90
2023-03-25T01:03:31.074Z,99.90
2023-03-25T01:05:57.914Z,99.90
2023-03-25T01:08:25.258Z,99.90
2023-03-25T01:10:54.419Z,99.90
2023-03-25T01:13:22.413Z,99.90
2023-03-25T01:15:49.655Z,99.90
2023-03-25T01:18:16.653Z,99.90
2023-03-25T01:20:43.756Z,99.90
2023-03-25T01:23:10.721Z,99.90
2023-03-25T01:25:38.102Z,99.90
2023-03-25T01:28:05.665Z,99.90
2023-03-25T01:30:32.674Z,99.90
2023-03-25T01:32:59.495Z,99.90
2023-03-25T01:35:26.259Z,99.90
2023-03-25T01:37:54.620Z,99.90
2023-03-25T01:40:24.264Z,99.90
2023-03-25T01:42:51.650Z,99.90
2023-03-25T01:45:26.382Z,99.90
2023-03-25T01:48:00.300Z,99.90
2023-03-25T01:50:29.437Z,99.90
2023-03-25T01:52:58.334Z,99.90
2023-03-25T01:55:27.435Z,99.90
2023-03-25T01:57:56.689Z,99.90
2023-03-25T02:00:23.797Z,99.90
2023-03-25T02:02:50.853Z,99.90
2023-03-25T02:05:30.890Z,99.90
2023-03-25T02:07:57.974Z,99.90
2023-03-25T02:10:24.872Z,99.90
2023-03-25T02:12:51.847Z,99.90
2023-03-25T02:15:19.035Z,99.90
2023-03-25T02:18:14.393Z,99.90
2023-03-25T02:21:02.946Z,99.90
2023-03-25T02:23:45.921Z,99.90
2023-03-25T02:26:42.431Z,99.90
2023-03-25T02:29:43.155Z,99.90
2023-03-25T02:32:15.899Z,99.90
2023-03-25T02:34:54.583Z,99.90
2023-03-25T02:37:27.156Z,99.90
2023-03-25T02:40:02.413Z,99.90
2023-03-25T02:42:40.657Z,99.90
2023-03-25T02:45:32.504Z,99.90
2023-03-25T02:48:16.019Z,99.90
2023-03-25T02:50:55.262Z,99.90
2023-03-25T02:53:28.709Z,99.90
2023-03-25T02:56:00.135Z,99.90
2023-03-25T02:58:29.889Z,99.90
2023-03-25T03:00:58.804Z,99.90
2023-03-25T03:03:27.399Z,99.90
2023-03-25T03:05:59.034Z,99.90
2023-03-25T03:08:34.560Z,99.90
2023-03-25T03:11:23.207Z,99.90
2023-03-25T03:13:53.193Z,99.90
2023-03-25T03:16:24.702Z,99.90
2023-03-25T03:19:05.862Z,99.90
2023-03-25T03:21:47.493Z,99.90
2023-03-25T03:24:27.269Z,99.90
2023-03-25T03:27:09.111Z,99.90
2023-03-25T03:29:46.367Z,99.90
2023-03-25T03:32:32.594Z,99.90
2023-03-25T03:35:04.669Z,99.90
2023-03-25T03:37:40.135Z,99.90
2023-03-25T03:40:13.059Z,99.90
2023-03-25T03:43:03.268Z,99.90
2023-03-25T03:45:38.696Z,99.90
2023-03-25T03:48:12.715Z,99.90
2023-03-25T03:50:46.410Z,99.90
2023-03-25T03:53:33.167Z,99.90
2023-03-25T03:56:06.880Z,99.90
2023-03-25T03:58:38.748Z,99.90
2023-03-25T04:01:14.192Z,99.90
2023-03-25T04:03:53.327Z,99.90
2023-03-25T04:06:27.082Z,99.90
2023-03-25T04:09:18.605Z,99.90
2023-03-25T04:11:53.764Z,99.90
2023-03-25T04:14:21.086Z,99.90
2023-03-25T04:16:47.879Z,99.90
2023-03-25T04:19:18.562Z,99.90
2023-03-25T04:21:46.200Z,99.90
2023-03-25T04:24:16.573Z,99.90
2023-03-25T04:26:44.261Z,99.90
2023-03-25T04:29:13.812Z,99.90
2023-03-25T04:31:50.146Z,99.90
2023-03-25T04:34:16.990Z,99.90
2023-03-25T04:36:43.755Z,99.90
2023-03-25T04:39:14.082Z,99.90
2023-03-25T04:41:40.853Z,99.90
2023-03-25T04:44:08.035Z,99.90
2023-03-25T04:46:36.456Z,99.90
2023-03-25T04:49:06.132Z,99.90
2023-03-25T04:51:33.061Z,99.90
2023-03-25T04:54:00.835Z,99.90
2023-03-25T04:56:27.847Z,99.90
2023-03-25T04:58:54.778Z,99.90
2023-03-25T05:01:30.633Z,99.90
2023-03-25T05:04:05.798Z,99.90
2023-03-25T05:06:41.821Z,99.90
2023-03-25T05:09:15.484Z,99.90
2023-03-25T05:11:43.260Z,99.90
2023-03-25T05:14:11.908Z,99.90
2023-03-25T05:16:39.399Z,99.90
2023-03-25T05:19:07.288Z,99.90
2023-03-25T05:21:38.388Z,99.90
2023-03-25T05:24:08.359Z,99.90
2023-03-25T05:26:35.799Z,99.90
2023-03-25T05:29:08.420Z,99.90
2023-03-25T05:31:36.820Z,99.90
2023-03-25T05:34:06.614Z,99.90
2023-03-25T05:36:33.425Z,99.90
2023-03-25T05:39:00.343Z,99.90
2023-03-25T05:41:32.672Z,99.90
2023-03-25T05:44:00.841Z,99.90
2023-03-25T05:46:31.987Z,99.90
2023-03-25T05:49:00.835Z,99.90
2023-03-25T05:51:28.867Z,99.90
2023-03-25T05:53:55.657Z,99.90
2023-03-25T05:56:24.193Z,99.90
2023-03-25T05:58:53.147Z,99.90
2023-03-25T06:01:31.840Z,99.90
2023-03-25T06:04:01.699Z,99.90
2023-03-25T06:06:29.358Z,99.90
2023-03-25T06:08:56.170Z,99.90
2023-03-25T06:11:22.851Z,99.90
2023-03-25T06:13:49.913Z,99.90
2023-03-25T06:16:19.548Z,99.90
2023-03-25T06:18:50.926Z,99.90
2023-03-25T06:21:19.770Z,99.90
2023-03-25T06:23:49.986Z,99.90
2023-03-25T06:26:18.059Z,99.90
2023-03-25T06:28:46.114Z,99.90
2023-03-25T06:31:16.923Z,99.90
2023-03-25T06:33:44.884Z,99.90
2023-03-25T06:36:13.510Z,99.90
2023-03-25T06:38:40.337Z,99.90
2023-03-25T06:41:07.630Z,99.90
2023-03-25T06:43:34.857Z,99.90
2023-03-25T06:46:01.773Z,99.90
2023-03-25T06:48:28.866Z,99.90
2023-03-25T06:50:55.699Z,99.90
2023-03-25T06:53:22.605Z,99.90
2023-03-25T06:55:51.212Z,99.90
2023-03-25T06:58:18.207Z,99.90
2023-03-25T07:00:45.951Z,99.90
2023-03-25T07:03:13.187Z,99.90
2023-03-25T07:05:42.806Z,99.90
2023-03-25T07:08:09.621Z,99.90
2023-03-25T07:10:36.641Z,99.90
2023-03-25T07:13:03.305Z,99.90
2023-03-25T07:15:30.128Z,99.90
2023-03-25T07:17:57.071Z,99.90
2023-03-25T07:20:23.885Z,99.90
2023-03-25T07:22:50.733Z,99.90
2023-03-25T07:25:17.735Z,99.90
2023-03-25T07:27:44.452Z,99.90
2023-03-25T07:30:11.483Z,99.90
2023-03-25T07:32:38.433Z,99.90
2023-03-25T07:35:06.475Z,99.90
2023-03-25T07:37:33.183Z,99.90
2023-03-25T07:40:00.301Z,99.90
2023-03-25T07:42:27.013Z,99.90
2023-03-25T07:44:53.801Z,99.90
2023-03-25T07:47:20.857Z,99.90
2023-03-25T07:49:47.822Z,99.90
2023-03-25T07:52:14.581Z,99.90
2023-03-25T07:54:41.579Z,99.90
2023-03-25T07:57:08.392Z,99.90
2023-03-25T07:59:35.243Z,99.90
2023-03-25T08:02:02.675Z,99.90
2023-03-25T08:04:29.611Z,99.90
2023-03-25T08:06:56.409Z,99.90
2023-03-25T08:09:23.384Z,99.90
2023-03-25T08:11:51.301Z,99.90
2023-03-25T08:14:18.014Z,99.90
2023-03-25T08:16:45.116Z,99.90
2023-03-25T08:19:12.118Z,99.90
2023-03-25T08:21:39.071Z,99.90
2023-03-25T08:24:06.205Z,99.90
2023-03-25T08:26:34.198Z,99.90
2023-03-25T08:29:02.910Z,99.90
2023-03-25T08:31:33.479Z,99.90
2023-03-25T08:34:01.761Z,99.90
2023-03-25T08:36:28.639Z,99.90
2023-03-25T08:38:55.998Z,99.90
2023-03-25T08:41:23.005Z,99.90
2023-03-25T08:43:50.372Z,99.90
2023-03-25T08:46:17.182Z,99.90
2023-03-25T08:48:44.560Z,99.90
2023-03-25T08:51:11.324Z,99.90
2023-03-25T08:53:38.124Z,99.90
2023-03-25T08:56:05.549Z,99.90
2023-03-25T08:58:32.268Z,99.90
2023-03-25T09:00:59.038Z,99.90
2023-03-25T09:03:27.352Z,99.90
2023-03-25T09:05:54.854Z,99.90
2023-03-25T09:08:22.316Z,99.90
2023-03-25T09:10:49.388Z,99.90
2023-03-25T09:13:16.563Z,99.90
2023-03-25T09:15:43.517Z,99.90
2023-03-25T09:18:10.624Z,99.90
2023-03-25T09:20:37.596Z,99.90
2023-03-25T09:23:04.458Z,99.90
2023-03-25T09:25:31.403Z,99.90
2023-03-25T09:27:58.142Z,99.90
2023-03-25T09:30:24.924Z,99.90
2023-03-25T09:32:51.637Z,99.90
2023-03-25T09:35:18.754Z,99.90
2023-03-25T09:37:45.766Z,99.90
2023-03-25T09:40:21.213Z,99.90
2023-03-25T09:43:09.770Z,99.90
2023-03-25T09:45:41.826Z,99.90
2023-03-25T09:48:14.703Z,99.90
2023-03-25T09:50:43.303Z,99.90
2023-03-25T09:53:10.210Z,99.90
2023-03-25T09:55:42.712Z,99.90
2023-03-25T09:58:41.524Z,99.90
2023-03-25T10:01:46.664Z,99.90
2023-03-25T10:04:35.343Z,99.90
2023-03-25T10:07:36.367Z,99.90
2023-03-25T10:10:27.028Z,99.90
2023-03-25T10:13:23.864Z,99.90
2023-03-25T10:15:59.042Z,99.90
2023-03-25T10:18:44.305Z,99.90
2023-03-25T10:21:17.014Z,99.90
2023-03-25T10:24:04.753Z,99.90
2023-03-25T10:26:47.148Z,99.90
2023-03-25T10:29:18.559Z,99.90
2023-03-25T10:31:59.798Z,99.90
2023-03-25T10:34:36.187Z,99.90
2023-03-25T10:37:07.701Z,99.90
2023-03-25T10:39:39.994Z,99.90
2023-03-25T10:42:15.585Z,99.90
2023-03-25T10:44:43.824Z,99.90
2023-03-25T10:47:19.421Z,99.90
2023-03-25T10:49:48.079Z,99.90
2023-03-25T10:52:16.290Z,99.90
2023-03-25T10:54:51.710Z,99.90
2023-03-25T10:57:28.629Z,99.90
2023-03-25T11:00:16.893Z,99.90
2023-03-25T11:02:44.162Z,99.90
2023-03-25T11:05:15.359Z,99.90
2023-03-25T11:07:56.395Z,99.00
2023-03-25T11:10:31.963Z,98.50
2023-03-25T11:13:03.870Z,92.80
2023-03-25T11:15:34.524Z,92.60
2023-03-25T11:18:08.308Z,94.40
2023-03-25T11:20:40.003Z,95.20
2023-03-25T11:23:14.683Z,96.20
2023-03-25T11:25:43.518Z,95.80
2023-03-25T11:28:32.736Z,96.30
2023-03-25T11:31:11.680Z,95.80
2023-03-25T11:33:40.227Z,96.00
2023-03-25T11:36:13.111Z,96.00
2023-03-25T11:38:40.938Z,95.40
2023-03-25T11:41:08.232Z,95.40
2023-03-25T11:43:38.086Z,93.20
2023-03-25T11:46:14.455Z,93.30
2023-03-25T11:48:43.270Z,90.90
2023-03-25T11:51:31.759Z,90.10
2023-03-25T11:54:02.239Z,86.60
2023-03-25T11:56:40.769Z,87.90
2023-03-25T11:59:27.133Z,87.20
2023-03-25T12:02:03.464Z,86.40
2023-03-25T12:04:31.180Z,69.50
2023-03-25T12:07:09.527Z,68.70
2023-03-25T12:09:36.739Z,68.00
2023-03-25T12:12:12.519Z,67.10
2023-03-25T12:15:08.360Z,67.00
2023-03-25T12:17:59.526Z,62.70
2023-03-25T12:20:51.313Z,61.60
2023-03-25T12:23:37.071Z,61.40
2023-03-25T12:26:11.087Z,55.20
2023-03-25T12:28:41.250Z,52.90
2023-03-25T12:31:30.124Z,48.80
2023-03-25T12:34:03.585Z,46.20
2023-03-25T12:36:48.660Z,42.70
2023-03-25T12:39:43.201Z,40.30
2023-03-25T12:42:40.039Z,38.30
2023-03-25T12:45:15.086Z,37.20
2023-03-25T12:48:23.078Z,35.60
2023-03-25T12:51:12.641Z,32.10
2023-03-25T12:53:53.246Z,30.80
2023-03-25T12:56:41.895Z,29.60
2023-03-25T12:59:17.211Z,28.30
2023-03-25T13:02:05.803Z,29.20
2023-03-25T13:04:49.210Z,28.90
2023-03-25T13:07:21.754Z,28.20
2023-03-25T13:09:57.815Z,26.90
2023-03-25T13:12:48.140Z,26.30
2023-03-25T13:15:27.304Z,26.40
2023-03-25T13:18:11.355Z,27.10
2023-03-25T13:20:43.012Z,25.50
2023-03-25T13:23:17.592Z,25.20
2023-03-25T13:25:59.219Z,25.10
2023-03-25T13:28:38.527Z,25.00
2023-03-25T13:31:14.523Z,25.20
2023-03-25T13:34:06.842Z,26.10
2023-03-25T13:36:41.400Z,25.20
2023-03-25T13:39:27.713Z,25.00
2023-03-25T13:42:07.561Z,23.90
2023-03-25T13:44:38.619Z,23.50
2023-03-25T13:47:05.277Z,23.50
2023-03-25T13:49:37.936Z,22.90
2023-03-25T13:52:07.494Z,22.80
2023-03-25T13:54:46.707Z,22.90
2023-03-25T13:57:41.449Z,22.80
2023-03-25T14:00:45.353Z,22.90
2023-03-25T14:03:49.599Z,25.50
2023-03-25T14:06:46.979Z,27.50
2023-03-25T14:09:16.767Z,28.80
2023-03-25T14:12:12.049Z,30.20
2023-03-25T14:14:49.064Z,31.00
2023-03-25T14:17:19.679Z,32.10
2023-03-25T14:19:55.321Z,32.20
2023-03-25T14:22:31.856Z,32.30
2023-03-25T14:25:00.376Z,32.80
2023-03-25T14:27:35.080Z,33.40
2023-03-25T14:30:08.625Z,33.90
2023-03-25T14:32:40.977Z,33.80
2023-03-25T14:35:41.836Z,32.50
2023-03-25T14:38:08.777Z,33.60
2023-03-25T14:43:53.042Z,34.10
2023-03-25T14:46:24.617Z,35.40
2023-03-25T14:49:05.769Z,33.50
2023-03-25T14:51:35.098Z,32.90
2023-03-25T14:54:23.705Z,31.40
2023-03-25T14:56:56.549Z,31.30
2023-03-25T14:59:30.951Z,33.80
2023-03-25T15:02:09.532Z,33.40
2023-03-25T15:04:40.157Z,32.90
2023-03-25T15:07:13.861Z,32.40
2023-03-25T15:09:52.476Z,33.60
2023-03-25T15:12:24.108Z,33.40
2023-03-25T15:14:56.860Z,33.40
2023-03-25T15:17:46.806Z,32.70
2023-03-25T15:20:28.774Z,32.60
2023-03-25T15:23:31.288Z,32.20
2023-03-25T15:26:00.930Z,31.50
2023-03-25T15:28:43.932Z,31.70
2023-03-25T15:31:42.013Z,32.10
2023-03-25T15:34:37.463Z,31.20
2023-03-25T15:37:35.984Z,31.60
2023-03-25T15:40:39.377Z,30.00
2023-03-25T15:43:06.056Z,29.40
2023-03-25T15:45:58.402Z,29.00
2023-03-25T15:48:41.693Z,28.30
2023-03-25T15:51:46.992Z,25.50
2023-03-25T15:54:25.581Z,24.20
2023-03-25T15:56:57.400Z,23.70
2023-03-25T16:00:05.557Z,22.50
2023-03-25T16:02:57.438Z,22.00
2023-03-25T16:05:24.818Z,21.90
2023-03-25T16:07:52.239Z,22.30
2023-03-25T16:10:31.045Z,22.00
2023-03-25T16:12:57.748Z,22.30
2023-03-25T16:15:30.342Z,22.40
2023-03-25T16:17:58.789Z,22.10
2023-03-25T16:20:28.807Z,22.10
2023-03-25T16:22:57.445Z,21.90
2023-03-25T16:25:38.255Z,23.10
2023-03-25T16:28:08.157Z,24.10
2023-03-25T16:30:38.996Z,25.30
2023-03-25T16:33:10.378Z,25.30
2023-03-25T16:35:41.431Z,26.00
2023-03-25T16:38:13.315Z,26.80
2023-03-25T16:40:41.463Z,26.80
2023-03-25T16:43:23.860Z,27.10
2023-03-25T16:45:52.467Z,27.20
2023-03-25T16:48:54.995Z,27.50
2023-03-25T16:51:29.920Z,27.10
2023-03-25T16:54:00.830Z,27.40
2023-03-25T16:56:37.464Z,27.80
2023-03-25T16:59:22.587Z,28.30
2023-03-25T17:01:58.090Z,28.70
2023-03-25T17:04:42.213Z,28.90
2023-03-25T17:07:14.500Z,29.20
2023-03-25T17:09:43.223Z,29.70
2023-03-25T17:12:16.895Z,31.30
2023-03-25T17:14:46.728Z,32.60
2023-03-25T17:17:22.257Z,34.90
2023-03-25T17:19:52.483Z,34.80
2023-03-25T17:22:32.278Z,35.10
2023-03-25T17:25:35.361Z,35.80
2023-03-25T17:28:34.051Z,36.80
2023-03-25T17:31:16.632Z,38.70
2023-03-25T17:33:57.878Z,37.80
2023-03-25T17:36:25.053Z,38.10
2023-03-25T17:38:53.924Z,37.50
2023-03-25T17:41:21.662Z,36.80
2023-03-25T17:43:53.146Z,37.10
2023-03-25T17:46:28.890Z,36.60
2023-03-25T17:48:57.865Z,36.40
2023-03-25T17:51:26.823Z,37.10
2023-03-25T17:53:54.313Z,36.60
2023-03-25T17:56:25.711Z,38.30
2023-03-25T17:59:04.396Z,38.20
2023-03-25T18:01:32.793Z,38.60
2023-03-25T18:03:59.578Z,38.40
2023-03-25T18:06:26.494Z,39.10
2023-03-25T18:08:53.332Z,39.00
2023-03-25T18:11:20.740Z,37.80
2023-03-25T18:13:50.164Z,38.40
2023-03-25T18:16:18.989Z,36.60
2023-03-25T18:18:46.055Z,36.40
2023-03-25T18:21:14.530Z,35.80
2023-03-25T18:23:44.760Z,35.90
2023-03-25T18:26:17.345Z,35.50
2023-03-25T18:28:45.468Z,34.40
2023-03-25T18:31:16.938Z,34.40
2023-03-25T18:33:46.360Z,33.00
2023-03-25T18:36:13.384Z,33.90
2023-03-25T18:38:40.649Z,33.60
2023-03-25T18:41:10.298Z,32.80
2023-03-25T18:43:37.208Z,33.20
2023-03-25T18:46:04.337Z,33.50
2023-03-25T18:48:31.175Z,32.80
2023-03-25T18:50:59.913Z,32.10
2023-03-25T18:53:28.753Z,31.90
2023-03-25T18:56:00.989Z,32.10
2023-03-25T18:58:33.258Z,32.30
2023-03-25T19:01:03.181Z,32.60
2023-03-25T19:03:31.414Z,32.90
2023-03-25T19:05:59.961Z,33.10
2023-03-25T19:08:28.416Z,33.80
2023-03-25T19:11:04.601Z,33.90
2023-03-25T19:13:35.242Z,36.10
2023-03-25T19:16:02.061Z,36.50
2023-03-25T19:18:31.903Z,36.70
2023-03-25T19:20:58.883Z,36.80
2023-03-25T19:23:26.012Z,37.10
2023-03-25T19:25:53.492Z,38.00
2023-03-25T19:28:22.260Z,39.80
2023-03-25T19:30:50.725Z,38.50
2023-03-25T19:33:19.304Z,37.50
2023-03-25T19:35:51.051Z,38.50
2023-03-25T19:38:22.751Z,39.70
2023-03-25T19:40:51.579Z,38.90
2023-03-25T19:43:18.789Z,38.50
2023-03-25T19:45:45.627Z,37.70
2023-03-25T19:48:12.421Z,38.00
2023-03-25T19:50:40.859Z,37.60
2023-03-25T19:53:07.922Z,40.40
2023-03-25T19:55:34.742Z,40.70
2023-03-25T19:58:02.358Z,40.90
2023-03-25T20:00:30.457Z,41.50
2023-03-25T20:03:00.777Z,39.90
2023-03-25T20:05:29.724Z,39.50
2023-03-25T20:07:56.706Z,40.30
2023-03-25T20:10:27.897Z,41.20
2023-03-25T20:12:55.392Z,41.00
2023-03-25T20:15:23.374Z,41.60
2023-03-25T20:17:51.642Z,39.90
2023-03-25T20:20:19.867Z,38.70
2023-03-25T20:22:48.396Z,38.20
2023-03-25T20:25:16.376Z,39.40
2023-03-25T20:27:44.407Z,41.50
2023-03-25T20:30:14.783Z,42.30
2023-03-25T20:32:43.212Z,42.90
2023-03-25T20:35:12.988Z,43.10
2023-03-25T20:37:41.416Z,43.40
2023-03-25T20:40:13.107Z,43.40
2023-03-25T20:42:41.907Z,45.80
2023-03-25T20:45:11.862Z,45.60
2023-03-25T20:47:38.835Z,45.80
2023-03-25T20:50:07.321Z,45.80
2023-03-25T20:52:35.928Z,46.80
2023-03-25T20:55:03.119Z,46.50
2023-03-25T20:57:29.869Z,46.90
2023-03-25T20:59:57.940Z,46.50
2023-03-25T21:02:25.232Z,45.60
2023-03-25T21:04:55.059Z,45.60
2023-03-25T21:07:22.284Z,45.00
2023-03-25T21:09:49.459Z,46.90
2023-03-25T21:12:16.484Z,47.40
2023-03-25T21:14:43.460Z,48.50
2023-03-25T21:17:10.487Z,49.20
2023-03-25T21:19:37.248Z,49.70
2023-03-25T21:22:04.354Z,50.90
2023-03-25T21:24:33.840Z,49.90
2023-03-25T21:27:00.606Z,48.80
2023-03-25T21:29:27.503Z,51.40
2023-03-25T21:31:54.493Z,52.10
2023-03-25T21:34:22.089Z,51.80
2023-03-25T21:36:48.901Z,51.50
2023-03-25T21:39:15.776Z,51.20
2023-03-25T21:41:42.662Z,50.60
2023-03-25T21:44:09.470Z,50.40
2023-03-25T21:46:36.851Z,50.30
2023-03-25T21:49:03.994Z,50.40
2023-03-25T21:51:31.079Z,50.70
2023-03-25T21:53:58.750Z,50.60
2023-03-25T21:56:27.896Z,50.80
2023-03-25T21:58:54.671Z,50.80
2023-03-25T22:01:28.879Z,50.90
2023-03-25T22:03:57.704Z,53.30
2023-03-25T22:06:27.482Z,54.90
2023-03-25T22:08:56.882Z,54.90
2023-03-25T22:11:28.987Z,56.10
2023-03-25T22:13:56.470Z,55.70
2023-03-25T22:16:23.818Z,56.80
2023-03-25T22:18:50.895Z,57.00
2023-03-25T22:21:20.442Z,55.70
2023-03-25T22:23:49.109Z,54.20
2023-03-25T22:26:17.650Z,53.70
2023-03-25T22:28:45.043Z,54.10
2023-03-25T22:31:17.835Z,55.00
2023-03-25T22:33:45.546Z,53.40
2023-03-25T22:36:15.503Z,53.30
2023-03-25T22:38:45.030Z,54.50
2023-03-25T22:41:13.680Z,56.90
2023-03-25T22:43:41.107Z,57.90
2023-03-25T22:46:09.518Z,59.10
2023-03-25T22:48:39.266Z,54.70
2023-03-25T22:51:12.466Z,54.90
2023-03-25T22:53:39.890Z,55.30
2023-03-25T22:56:07.684Z,55.90
2023-03-25T22:58:34.897Z,55.40
2023-03-25T23:01:04.334Z,57.40
2023-03-25T23:03:31.627Z,57.50
2023-03-25T23:06:07.125Z,57.40
2023-03-25T23:08:34.989Z,57.40
2023-03-25T23:11:18.186Z,58.50
2023-03-25T23:13:47.838Z,59.10
2023-03-25T23:16:17.920Z,59.80
2023-03-25T23:18:45.424Z,59.60
2023-03-25T23:21:15.208Z,60.00
2023-03-25T23:23:52.910Z,60.00
2023-03-25T23:26:37.075Z,59.00
2023-03-25T23:29:08.958Z,57.50
2023-03-25T23:31:37.494Z,56.80
2023-03-25T23:34:06.698Z,54.70
2023-03-25T23:36:39.296Z,55.30
2023-03-25T23:39:08.913Z,56.00
2023-03-25T23:41:35.622Z,55.50
2023-03-25T23:44:03.566Z,55.10
2023-03-25T23:46:31.019Z,55.30
2023-03-25T23:49:04.587Z,56.10
2023-03-25T23:51:42.040Z,57.80
2023-03-25T23:54:11.561Z,58.40
2023-03-25T23:56:38.712Z,59.40
2023-03-25T23:59:06.832Z,60.60
